Time;durP1;ratioP1;P1;durP2;ratioP2;P2;SDS_P1;SDS_P2;PMS_P1;PMS_P2;Temp;Humidity;BMP_temperature;BMP_pressure;BME280_temperature;BME280_humidity;BME280_pressure;Samples;Min_cycle;Max_cycle;Signal;HPM_P1;HPM_P2
2021/01/18 00:01:02;;;;;;;24.42;13.88;;;4.50;99.90;;;;;;5092380;28;20646;-77
2021/01/18 00:03:39;;;;;;;27.88;13.18;;;4.60;99.90;;;;;;5092405;28;20263;-75
2021/01/18 00:06:15;;;;;;;20.65;11.75;;;4.60;99.90;;;;;;5092580;28;20769;-75
2021/01/18 00:08:48;;;;;;;20.27;12.00;;;4.60;99.90;;;;;;5094044;28;20577;-79
2021/01/18 00:11:22;;;;;;;24.45;12.20;;;4.60;99.90;;;;;;5094308;28;20193;-78
2021/01/18 00:13:55;;;;;;;19.38;11.25;;;4.60;99.90;;;;;;5093327;28;20284;-76
2021/01/18 00:16:27;;;;;;;17.77;11.02;;;4.60;99.90;;;;;;5093258;28;20564;-77
2021/01/18 00:19:00;;;;;;;21.85;12.75;;;4.50;99.90;;;;;;5089591;28;20204;-78
2021/01/18 00:21:32;;;;;;;35.95;13.77;;;4.60;99.90;;;;;;5090928;28;20258;-77
2021/01/18 00:24:06;;;;;;;24.77;12.45;;;4.50;99.90;;;;;;5092140;28;20197;-76
2021/01/18 00:26:39;;;;;;;21.58;12.00;;;4.60;99.90;;;;;;5092245;28;20306;-77
2021/01/18 00:29:12;;;;;;;25.27;13.68;;;4.60;99.90;;;;;;5090967;28;20198;-78
2021/01/18 00:31:45;;;;;;;21.80;13.00;;;4.60;99.90;;;;;;5093907;28;20247;-76
2021/01/18 00:34:17;;;;;;;24.55;12.50;;;4.60;99.90;;;;;;5092961;28;20204;-75
2021/01/18 00:36:51;;;;;;;24.98;11.77;;;4.50;99.90;;;;;;5094146;28;20227;-77
2021/01/18 00:39:24;;;;;;;27.60;12.50;;;4.50;99.90;;;;;;5091343;28;20205;-76
2021/01/18 00:41:56;;;;;;;31.52;12.25;;;4.50;99.90;;;;;;5089616;28;20224;-76
2021/01/18 00:44:29;;;;;;;20.73;11.30;;;4.50;99.90;;;;;;5091142;28;20238;-76
2021/01/18 00:47:02;;;;;;;17.33;11.65;;;4.50;99.90;;;;;;5091502;28;20228;-77
2021/01/18 00:49:34;;;;;;;26.30;13.40;;;4.50;99.90;;;;;;5090533;28;20274;-82
2021/01/18 00:52:07;;;;;;;33.13;12.02;;;4.60;99.90;;;;;;5092421;28;20254;-78
2021/01/18 00:54:41;;;;;;;31.65;13.05;;;4.50;99.90;;;;;;5093482;28;20208;-76
2021/01/18 00:57:13;;;;;;;19.58;14.25;;;4.50;99.90;;;;;;5093896;28;20198;-77
2021/01/18 00:59:46;;;;;;;17.58;13.30;;;4.50;99.90;;;;;;5092703;28;20208;-78
2021/01/18 01:02:18;;;;;;;26.05;13.40;;;4.50;99.90;;;;;;5089176;28;20300;-78
2021/01/18 01:04:51;;;;;;;29.92;13.55;;;4.50;99.90;;;;;;5089573;28;20212;-77
2021/01/18 01:07:24;;;;;;;27.70;12.48;;;4.60;99.90;;;;;;5090956;28;20220;-76
2021/01/18 01:09:57;;;;;;;28.17;11.95;;;4.60;99.90;;;;;;5091269;28;20651;-78
2021/01/18 01:12:29;;;;;;;34.22;15.65;;;4.60;99.90;;;;;;5091324;28;20266;-75
2021/01/18 01:15:03;;;;;;;44.90;14.65;;;4.60;99.90;;;;;;5092841;28;20296;-76
2021/01/18 01:17:41;;;;;;;26.35;14.35;;;4.60;99.90;;;;;;5091962;28;20250;-76
2021/01/18 01:20:15;;;;;;;31.60;13.93;;;4.60;99.90;;;;;;5093075;28;20208;-79
2021/01/18 01:22:48;;;;;;;31.15;14.77;;;4.60;99.90;;;;;;5090412;28;20215;-81
2021/01/18 01:25:24;;;;;;;34.17;15.80;;;4.50;99.90;;;;;;5088826;28;20335;-79
2021/01/18 01:27:57;;;;;;;24.77;14.07;;;4.60;99.90;;;;;;5088867;28;20304;-79
2021/01/18 01:30:29;;;;;;;23.25;14.00;;;4.50;99.90;;;;;;5091041;28;20229;-80
2021/01/18 01:33:02;;;;;;;22.08;13.80;;;4.50;99.90;;;;;;5090797;28;20281;-79
2021/01/18 01:35:35;;;;;;;25.50;14.35;;;4.60;99.90;;;;;;5091216;28;20369;-78
2021/01/18 01:38:07;;;;;;;29.30;14.25;;;4.50;99.90;;;;;;5092741;28;20253;-79
2021/01/18 01:40:41;;;;;;;26.00;14.35;;;4.50;99.90;;;;;;5092919;28;20207;-80
2021/01/18 01:43:13;;;;;;;28.23;13.90;;;4.50;99.90;;;;;;5092608;28;20290;-77
2021/01/18 01:45:46;;;;;;;28.05;14.38;;;4.50;99.90;;;;;;5090016;28;20691;-76
2021/01/18 01:48:19;;;;;;;26.35;14.63;;;4.50;99.90;;;;;;5087767;28;20645;-77
2021/01/18 01:50:52;;;;;;;31.65;15.55;;;4.40;99.90;;;;;;5090239;28;20231;-75
2021/01/18 01:53:29;;;;;;;33.67;17.38;;;4.40;99.90;;;;;;5089024;28;20631;-76
2021/01/18 01:56:03;;;;;;;21.23;14.32;;;4.40;99.90;;;;;;5089568;28;20743;-83
2021/01/18 01:58:36;;;;;;;27.77;14.93;;;4.40;99.90;;;;;;5091826;28;20204;-78
2021/01/18 02:01:08;;;;;;;27.35;14.75;;;4.40;99.90;;;;;;5092529;28;20292;-77
2021/01/18 02:03:45;;;;;;;28.27;15.68;;;4.40;99.90;;;;;;5092460;28;20226;-79
2021/01/18 02:06:18;;;;;;;26.02;16.10;;;4.40;99.90;;;;;;5091067;28;20193;-74
2021/01/18 02:08:51;;;;;;;21.08;15.00;;;4.40;99.90;;;;;;5088195;28;20546;-78
2021/01/18 02:11:25;;;;;;;26.45;15.15;;;4.40;99.90;;;;;;5090411;28;20201;-77
2021/01/18 02:14:10;;;;;;;22.98;13.95;;;4.40;99.90;;;;;;5094456;28;20204;-78
2021/01/18 02:16:50;;;;;;;26.67;14.52;;;4.40;99.90;;;;;;5094592;28;20292;-77
2021/01/18 02:19:54;;;;;;;21.90;13.15;;;4.30;99.90;;;;;;5095046;28;20197;-75
2021/01/18 02:22:54;;;;;;;26.50;13.23;;;4.40;99.90;;;;;;5096449;28;20239;-77
2021/01/18 02:25:36;;;;;;;28.33;13.13;;;4.30;99.90;;;;;;5096552;28;20204;-76
2021/01/18 02:28:18;;;;;;;17.88;11.98;;;4.40;99.90;;;;;;5095271;28;20221;-78
2021/01/18 02:31:12;;;;;;;19.50;11.05;;;4.30;99.90;;;;;;5091541;28;20619;-77
2021/01/18 02:34:11;;;;;;;21.98;12.52;;;4.30;99.90;;;;;;5092221;28;20221;-78
2021/01/18 02:36:57;;;;;;;18.40;10.40;;;4.30;99.90;;;;;;5093836;28;20573;-77
2021/01/18 02:39:39;;;;;;;18.95;11.40;;;4.30;99.90;;;;;;5093284;28;20206;-77
2021/01/18 02:42:20;;;;;;;29.05;11.20;;;4.30;99.90;;;;;;5095041;28;20685;-78
2021/01/18 02:44:58;;;;;;;15.75;10.25;;;4.30;99.90;;;;;;5096224;28;20682;-80
2021/01/18 02:47:33;;;;;;;21.83;9.80;;;4.20;99.90;;;;;;5095794;28;20269;-81
2021/01/18 02:50:07;;;;;;;18.38;9.88;;;4.20;99.90;;;;;;5095534;28;20246;-81
2021/01/18 02:52:41;;;;;;;15.05;9.30;;;4.20;99.90;;;;;;5092221;28;20213;-78
2021/01/18 02:55:17;;;;;;;13.95;8.63;;;4.20;99.90;;;;;;5090865;28;20239;-79
2021/01/18 02:57:52;;;;;;;17.20;7.43;;;4.20;99.90;;;;;;5092516;28;20315;-79
2021/01/18 03:00:30;;;;;;;14.95;8.05;;;4.10;99.90;;;;;;5075760;28;20201;-80
2021/01/18 03:03:13;;;;;;;17.25;8.25;;;4.10;99.90;;;;;;5093686;28;20270;-79
2021/01/18 03:05:53;;;;;;;11.00;7.32;;;4.20;99.90;;;;;;5095148;28;20201;-77
2021/01/18 03:08:31;;;;;;;19.85;7.68;;;4.10;99.90;;;;;;5095437;28;20223;-77
2021/01/18 03:11:10;;;;;;;14.10;7.38;;;4.10;99.90;;;;;;5078210;28;20201;-78
2021/01/18 03:13:48;;;;;;;15.82;8.95;;;4.10;99.90;;;;;;5092431;28;20220;-77
2021/01/18 03:16:24;;;;;;;20.48;8.98;;;4.10;99.90;;;;;;5091176;28;20194;-77
2021/01/18 03:19:02;;;;;;;15.90;8.88;;;4.10;99.90;;;;;;5092815;28;20204;-78
2021/01/18 03:21:35;;;;;;;17.10;8.93;;;4.10;99.90;;;;;;5093109;28;20205;-76
2021/01/18 03:24:09;;;;;;;15.18;8.93;;;4.00;99.90;;;;;;5092363;28;20200;-79
2021/01/18 03:26:44;;;;;;;14.85;8.32;;;4.00;99.90;;;;;;5094028;28;20226;-77
2021/01/18 03:29:17;;;;;;;14.60;9.05;;;4.00;99.90;;;;;;5097169;28;20251;-78
2021/01/18 03:31:51;;;;;;;16.95;9.30;;;4.10;99.90;;;;;;5094141;28;20717;-77
2021/01/18 03:34:25;;;;;;;16.10;9.38;;;4.00;99.90;;;;;;5095350;28;20198;-76
2021/01/18 03:36:58;;;;;;;22.15;9.07;;;4.00;99.90;;;;;;5091390;28;20556;-79
2021/01/18 03:39:31;;;;;;;21.80;9.75;;;4.00;99.90;;;;;;5091293;28;20197;-75
2021/01/18 03:42:04;;;;;;;15.82;9.27;;;4.00;99.90;;;;;;5093029;28;20274;-78
2021/01/18 03:44:36;;;;;;;18.38;9.60;;;4.00;99.90;;;;;;5092976;28;20198;-76
2021/01/18 03:47:09;;;;;;;21.05;10.98;;;4.00;99.90;;;;;;5092987;28;20216;-76
2021/01/18 03:49:41;;;;;;;24.42;10.60;;;4.00;99.90;;;;;;5093212;28;20290;-76
2021/01/18 03:52:14;;;;;;;22.05;9.85;;;4.00;99.90;;;;;;5094650;28;20274;-76
2021/01/18 03:54:48;;;;;;;27.45;13.45;;;4.00;99.90;;;;;;5094874;28;20242;-78
2021/01/18 03:57:20;;;;;;;18.92;10.05;;;4.00;99.90;;;;;;5093689;28;20192;-76
2021/01/18 03:59:53;;;;;;;20.60;11.40;;;4.00;99.90;;;;;;5090248;28;20198;-79
2021/01/18 04:02:25;;;;;;;24.73;10.80;;;4.00;99.90;;;;;;5091785;28;20224;-77
2021/01/18 04:04:58;;;;;;;15.48;9.60;;;4.00;99.90;;;;;;5092523;28;20293;-77
2021/01/18 04:07:30;;;;;;;15.13;9.65;;;4.10;99.90;;;;;;5092201;28;20312;-77
2021/01/18 04:10:05;;;;;;;17.98;9.63;;;4.00;99.90;;;;;;5092611;28;20205;-77
2021/01/18 04:12:39;;;;;;;11.50;8.90;;;4.00;99.90;;;;;;5094286;28;20716;-77
2021/01/18 04:15:14;;;;;;;18.15;11.27;;;4.00;99.90;;;;;;5094320;28;20197;-76
2021/01/18 04:17:47;;;;;;;14.70;9.65;;;4.00;99.90;;;;;;5076592;28;20641;-76
2021/01/18 04:20:21;;;;;;;18.15;10.65;;;4.00;99.90;;;;;;5091432;28;20288;-78
2021/01/18 04:22:55;;;;;;;23.95;10.88;;;4.00;99.90;;;;;;5072549;28;20240;-76
2021/01/18 04:25:29;;;;;;;22.33;10.65;;;4.00;99.90;;;;;;5091482;28;20200;-76
2021/01/18 04:28:03;;;;;;;16.80;9.45;;;4.00;99.90;;;;;;5091949;28;20217;-81
2021/01/18 04:30:37;;;;;;;19.63;10.50;;;4.10;99.90;;;;;;5091024;28;20204;-75
2021/01/18 04:33:10;;;;;;;21.05;11.10;;;4.00;99.90;;;;;;5091720;28;20298;-77
2021/01/18 04:35:43;;;;;;;26.35;10.32;;;4.10;99.90;;;;;;5093698;28;20201;-77
2021/01/18 04:38:15;;;;;;;24.52;11.60;;;4.00;99.90;;;;;;5094117;28;20246;-77
2021/01/18 04:40:48;;;;;;;18.15;10.88;;;4.00;99.90;;;;;;5093921;28;20204;-77
2021/01/18 04:43:21;;;;;;;17.38;11.52;;;4.00;99.90;;;;;;5089177;28;20490;-79
2021/01/18 04:45:54;;;;;;;22.60;12.57;;;4.00;99.90;;;;;;5090432;28;20204;-77
2021/01/18 04:48:28;;;;;;;19.25;11.20;;;4.10;99.90;;;;;;5090391;28;20709;-76
2021/01/18 04:51:01;;;;;;;20.60;12.70;;;4.00;99.90;;;;;;5091578;28;20581;-75
2021/01/18 04:53:37;;;;;;;25.02;11.68;;;4.00;99.90;;;;;;5091650;28;20228;-78
2021/01/18 04:56:28;;;;;;;23.90;12.05;;;4.00;99.90;;;;;;5073340;28;20285;-77
2021/01/18 04:59:03;;;;;;;19.27;12.02;;;4.00;99.90;;;;;;5073147;28;20301;-77
2021/01/18 05:01:41;;;;;;;26.98;13.35;;;4.00;99.90;;;;;;5073278;28;20289;-78
2021/01/18 05:04:29;;;;;;;27.38;13.02;;;4.00;99.90;;;;;;5080688;28;20554;-78
2021/01/18 05:07:11;;;;;;;29.05;13.10;;;4.00;99.90;;;;;;5089970;28;20480;-79
2021/01/18 05:09:54;;;;;;;21.70;12.43;;;4.00;99.90;;;;;;5091057;28;20294;-77
2021/01/18 05:12:30;;;;;;;22.35;12.57;;;4.00;99.90;;;;;;5089792;28;20240;-78
2021/01/18 05:15:05;;;;;;;22.17;11.45;;;4.00;99.90;;;;;;5091347;28;20193;-75
2021/01/18 05:17:42;;;;;;;20.05;12.43;;;4.00;99.90;;;;;;5092456;28;20611;-76
2021/01/18 05:20:16;;;;;;;19.95;11.60;;;4.00;99.90;;;;;;5092036;28;20200;-77
2021/01/18 05:22:51;;;;;;;19.30;11.18;;;4.00;99.90;;;;;;5093103;28;20581;-81
2021/01/18 05:25:24;;;;;;;21.90;12.02;;;4.10;99.90;;;;;;5092155;28;20640;-79
2021/01/18 05:28:00;;;;;;;17.33;10.85;;;4.00;99.90;;;;;;5088268;28;20220;-77
2021/01/18 05:30:34;;;;;;;22.75;11.30;;;4.10;99.90;;;;;;5088706;28;20203;-76
2021/01/18 05:33:09;;;;;;;16.05;10.82;;;4.10;99.90;;;;;;5089562;28;20217;-77
2021/01/18 05:35:46;;;;;;;22.92;11.63;;;4.10;99.90;;;;;;5089738;28;20253;-76
2021/01/18 05:38:19;;;;;;;17.88;11.77;;;4.10;99.90;;;;;;5090933;28;20203;-79
2021/01/18 05:40:52;;;;;;;24.73;12.80;;;4.10;99.90;;;;;;5092905;28;20197;-77
2021/01/18 05:43:34;;;;;;;21.05;11.60;;;4.10;99.90;;;;;;5091575;28;20259;-80
2021/01/18 05:46:07;;;;;;;22.63;12.05;;;4.20;99.90;;;;;;5092092;28;20683;-77
2021/01/18 05:48:40;;;;;;;26.95;13.07;;;4.10;99.90;;;;;;5088405;28;20286;-77
2021/01/18 05:51:20;;;;;;;23.73;11.20;;;4.10;99.90;;;;;;5089189;28;20243;-77
2021/01/18 05:53:52;;;;;;;20.60;11.45;;;4.10;99.90;;;;;;5090385;28;20600;-76
2021/01/18 05:56:25;;;;;;;26.58;12.25;;;4.10;99.90;;;;;;5090269;28;20222;-80
2021/01/18 05:58:58;;;;;;;21.30;12.00;;;4.10;99.90;;;;;;5090608;28;20197;-78
2021/01/18 06:01:40;;;;;;;23.58;12.43;;;4.20;99.90;;;;;;5091577;28;20198;-81
2021/01/18 06:04:14;;;;;;;15.43;11.32;;;4.20;99.90;;;;;;5091564;28;20201;-78
2021/01/18 06:06:55;;;;;;;26.40;12.00;;;4.10;99.90;;;;;;5092481;28;20266;-75
2021/01/18 06:09:44;;;;;;;18.60;11.63;;;4.10;99.90;;;;;;5090670;28;20577;-80
2021/01/18 06:12:26;;;;;;;24.60;12.10;;;4.20;99.90;;;;;;5073244;28;20213;-77
2021/01/18 06:15:10;;;;;;;23.00;13.02;;;4.20;99.90;;;;;;5088616;28;20212;-81
2021/01/18 06:17:44;;;;;;;22.10;12.20;;;4.20;99.90;;;;;;5074655;28;20283;-83
2021/01/18 06:20:19;;;;;;;19.88;11.52;;;4.20;99.90;;;;;;5072787;28;20287;-77
2021/01/18 06:22:53;;;;;;;19.20;12.57;;;4.20;99.90;;;;;;5090998;28;20225;-76
2021/01/18 06:25:33;;;;;;;21.85;12.25;;;4.20;99.90;;;;;;5091605;28;20560;-77
2021/01/18 06:28:29;;;;;;;22.17;12.38;;;4.20;99.90;;;;;;5092168;28;20217;-76
2021/01/18 06:31:04;;;;;;;33.85;13.40;;;4.20;99.90;;;;;;5073419;28;20720;-77
2021/01/18 06:33:40;;;;;;;24.80;14.00;;;4.20;99.90;;;;;;5088294;28;20281;-81
2021/01/18 06:36:16;;;;;;;24.33;12.65;;;4.20;99.90;;;;;;5089974;28;20217;-81
2021/01/18 06:38:52;;;;;;;29.70;14.02;;;4.20;99.90;;;;;;5072132;28;20205;-78
2021/01/18 06:41:26;;;;;;;24.33;13.75;;;4.20;99.90;;;;;;5089166;28;20247;-77
2021/01/18 06:43:59;;;;;;;22.17;13.60;;;4.20;99.90;;;;;;5091110;28;20229;-78
2021/01/18 06:46:30;;;;;;;28.13;13.00;;;4.20;99.90;;;;;;5090860;28;20259;-80
2021/01/18 06:49:03;;;;;;;24.50;14.13;;;4.20;99.90;;;;;;5088800;28;20290;-79
2021/01/18 06:51:43;;;;;;;27.83;13.30;;;4.20;99.90;;;;;;5091489;28;20209;-78
2021/01/18 06:54:20;;;;;;;19.55;12.98;;;4.20;99.90;;;;;;5086892;28;20203;-78
2021/01/18 06:57:02;;;;;;;25.33;12.68;;;4.20;99.90;;;;;;5088951;28;20279;-78
2021/01/18 06:59:45;;;;;;;26.23;11.80;;;4.20;99.90;;;;;;5093258;28;20201;-76
2021/01/18 07:02:23;;;;;;;33.85;15.70;;;4.20;99.90;;;;;;5093520;28;20720;-80
2021/01/18 07:04:51;;;;;;;26.52;12.88;;;4.20;99.90;;;;;;5092678;28;20243;-78
2021/01/18 07:07:26;;;;;;;30.73;13.23;;;4.10;99.90;;;;;;5074245;28;20748;-78
2021/01/18 07:10:01;;;;;;;29.65;14.40;;;4.10;99.90;;;;;;5094447;28;20203;-80
2021/01/18 07:12:35;;;;;;;25.70;12.10;;;4.10;99.90;;;;;;5077690;28;20319;-80
2021/01/18 07:15:10;;;;;;;30.08;16.83;;;4.20;99.90;;;;;;5091963;28;20210;-81
2021/01/18 07:17:52;;;;;;;27.08;13.68;;;4.20;99.90;;;;;;5090982;28;20196;-83
2021/01/18 07:20:26;;;;;;;20.27;13.40;;;4.20;99.90;;;;;;5092894;28;20219;-81
2021/01/18 07:23:22;;;;;;;29.13;13.23;;;4.20;99.90;;;;;;5093173;28;20220;-82
2021/01/18 07:26:06;;;;;;;20.13;11.43;;;4.20;99.90;;;;;;5092446;28;20288;-86
2021/01/18 07:28:42;;;;;;;23.83;12.73;;;4.20;99.90;;;;;;5093828;28;20292;-78
2021/01/18 07:31:18;;;;;;;21.40;11.35;;;4.30;99.90;;;;;;5083572;28;20285;-80
2021/01/18 07:33:58;;;;;;;22.70;12.23;;;4.30;99.90;;;;;;5093507;28;20280;-79
2021/01/18 07:36:26;;;;;;;29.35;13.23;;;4.30;99.90;;;;;;5083938;28;20200;-76
2021/01/18 07:38:59;;;;;;;23.35;11.98;;;4.30;99.90;;;;;;5089305;28;20332;-80
2021/01/18 07:41:35;;;;;;;20.33;11.75;;;4.30;99.90;;;;;;5091597;28;20213;-76
2021/01/18 07:44:30;;;;;;;24.42;12.32;;;4.30;99.90;;;;;;5075017;28;20269;-78
2021/01/18 07:47:05;;;;;;;22.52;11.95;;;4.30;99.90;;;;;;5091912;28;20308;-77
2021/01/18 07:49:40;;;;;;;20.83;11.88;;;4.30;99.90;;;;;;5092112;28;20225;-77
2021/01/18 07:52:29;;;;;;;26.13;12.48;;;4.30;99.90;;;;;;5093663;28;20304;-79
2021/01/18 07:55:03;;;;;;;25.17;12.70;;;4.30;99.90;;;;;;5092964;28;20229;-78
2021/01/18 07:57:39;;;;;;;19.23;11.73;;;4.40;99.90;;;;;;5094689;28;20197;-78
2021/01/18 08:00:27;;;;;;;21.60;12.93;;;4.30;99.90;;;;;;5091887;28;20730;-77
2021/01/18 08:03:23;;;;;;;21.60;12.85;;;4.30;99.90;;;;;;5090134;28;20217;-77
2021/01/18 08:06:01;;;;;;;21.67;13.23;;;4.40;99.90;;;;;;5089761;28;20256;-76
2021/01/18 08:08:34;;;;;;;24.25;13.80;;;4.40;99.90;;;;;;5090082;28;20247;-79
2021/01/18 08:11:22;;;;;;;19.88;12.43;;;4.40;99.90;;;;;;5091635;28;20198;-78
2021/01/18 08:13:56;;;;;;;21.90;12.45;;;4.50;99.90;;;;;;5073036;28;20198;-77
2021/01/18 08:16:39;;;;;;;24.88;12.93;;;4.40;99.90;;;;;;5074102;28;20224;-76
2021/01/18 08:19:20;;;;;;;26.67;13.85;;;4.50;99.90;;;;;;5088870;28;20224;-80
2021/01/18 08:21:58;;;;;;;25.52;14.45;;;4.50;99.90;;;;;;5092709;28;20214;-77
2021/01/18 08:24:54;;;;;;;28.17;14.88;;;4.50;99.90;;;;;;5088326;28;20522;-77
2021/01/18 08:27:37;;;;;;;21.40;13.50;;;4.50;99.90;;;;;;5070405;28;20229;-77
2021/01/18 08:30:27;;;;;;;20.23;12.75;;;4.50;99.90;;;;;;5087361;28;20194;-78
2021/01/18 08:33:01;;;;;;;25.27;13.90;;;4.50;99.90;;;;;;5091005;28;20731;-77
2021/01/18 08:35:41;;;;;;;19.88;12.65;;;4.60;99.90;;;;;;5093191;28;20197;-78
2021/01/18 08:38:26;;;;;;;30.00;14.95;;;4.60;99.90;;;;;;5092991;28;20240;-77
2021/01/18 08:41:10;;;;;;;30.60;13.93;;;4.60;99.90;;;;;;5072623;28;20194;-77
2021/01/18 08:43:46;;;;;;;26.38;14.90;;;4.60;99.90;;;;;;5074891;28;20214;-79
2021/01/18 08:46:31;;;;;;;28.08;15.30;;;4.70;99.90;;;;;;5084647;28;20209;-76
2021/01/18 08:49:20;;;;;;;31.50;14.60;;;4.70;99.90;;;;;;5085577;28;20230;-77
2021/01/18 08:51:53;;;;;;;30.73;15.40;;;4.70;99.90;;;;;;5089101;28;20300;-79
2021/01/18 08:54:30;;;;;;;28.33;15.13;;;4.70;99.90;;;;;;5090645;28;20280;-75
2021/01/18 08:57:19;;;;;;;24.52;14.43;;;4.80;99.90;;;;;;5091826;28;20207;-76
2021/01/18 09:00:01;;;;;;;28.75;14.82;;;4.80;99.90;;;;;;5089023;28;20281;-76
2021/01/18 09:02:34;;;;;;;30.80;14.82;;;4.90;99.90;;;;;;5089058;28;20609;-77
2021/01/18 09:05:17;;;;;;;23.95;14.55;;;4.90;99.90;;;;;;5071257;28;20198;-76
2021/01/18 09:07:50;;;;;;;28.95;16.13;;;4.90;99.90;;;;;;5073673;28;20223;-78
2021/01/18 09:10:26;;;;;;;28.55;15.88;;;4.90;99.90;;;;;;5091169;28;20284;-77
2021/01/18 09:13:03;;;;;;;26.52;16.20;;;5.00;99.90;;;;;;5092364;28;20621;-79
2021/01/18 09:15:37;;;;;;;29.42;15.75;;;5.00;99.90;;;;;;5091468;28;20193;-78
2021/01/18 09:18:10;;;;;;;29.45;15.00;;;5.00;99.90;;;;;;5092227;28;20650;-76
2021/01/18 09:20:44;;;;;;;27.20;14.80;;;5.00;99.90;;;;;;5090933;28;20661;-78
2021/01/18 09:23:13;;;;;;;25.38;14.52;;;5.00;99.90;;;;;;5086885;28;20269;-78
2021/01/18 09:25:56;;;;;;;25.80;14.23;;;5.00;99.90;;;;;;5088326;28;20207;-78
2021/01/18 09:28:23;;;;;;;26.83;14.32;;;5.00;99.90;;;;;;5081137;28;20245;-77
2021/01/18 09:30:55;;;;;;;30.15;15.95;;;5.10;99.90;;;;;;5069852;28;20289;-75
2021/01/18 09:33:34;;;;;;;38.03;15.00;;;5.00;99.90;;;;;;5085460;28;20304;-76
2021/01/18 09:36:11;;;;;;;32.05;15.45;;;5.10;99.90;;;;;;5088656;28;20308;-75
2021/01/18 09:38:45;;;;;;;40.33;18.23;;;5.10;99.90;;;;;;5069195;28;20192;-80
2021/01/18 09:41:27;;;;;;;28.95;15.82;;;5.10;99.90;;;;;;5087877;28;20292;-78
2021/01/18 09:44:07;;;;;;;29.67;15.63;;;5.20;99.90;;;;;;5088234;28;20215;-78
2021/01/18 09:46:43;;;;;;;31.23;13.90;;;5.20;99.90;;;;;;5081030;28;20194;-77
2021/01/18 09:49:09;;;;;;;19.63;11.70;;;5.20;99.90;;;;;;5078787;28;20332;-76
2021/01/18 09:51:42;;;;;;;24.70;11.68;;;5.20;99.90;;;;;;5087606;28;20204;-78
2021/01/18 09:54:15;;;;;;;23.60;11.00;;;5.20;99.90;;;;;;5088864;28;20582;-76
2021/01/18 09:56:53;;;;;;;16.67;11.27;;;5.30;99.90;;;;;;5083809;28;20202;-78
2021/01/18 09:59:22;;;;;;;23.05;12.07;;;5.30;99.90;;;;;;5069176;28;20204;-79
2021/01/18 10:01:50;;;;;;;22.33;11.20;;;5.20;99.90;;;;;;5076719;28;20213;-75
2021/01/18 10:04:25;;;;;;;27.80;10.68;;;5.30;99.90;;;;;;5075322;28;20190;-77
2021/01/18 10:07:03;;;;;;;25.88;9.90;;;5.30;99.90;;;;;;5072024;28;20301;-78
2021/01/18 10:09:33;;;;;;;21.77;9.63;;;5.40;99.90;;;;;;5091494;28;20204;-76
2021/01/18 10:12:13;;;;;;;18.10;8.50;;;5.40;99.90;;;;;;5090882;28;20299;-76
2021/01/18 10:14:50;;;;;;;17.20;9.27;;;5.40;99.90;;;;;;5087112;28;20788;-76
2021/01/18 10:17:31;;;;;;;16.13;7.50;;;5.40;99.90;;;;;;5089114;28;20584;-77
2021/01/18 10:20:07;;;;;;;14.82;7.38;;;5.40;99.90;;;;;;5088316;28;20668;-77
2021/01/18 10:22:40;;;;;;;26.00;7.78;;;5.40;99.90;;;;;;5088930;28;20312;-79
2021/01/18 10:25:11;;;;;;;20.67;7.07;;;5.40;99.90;;;;;;5090757;28;20292;-75
2021/01/18 10:27:51;;;;;;;13.98;6.55;;;5.50;99.90;;;;;;5084816;28;20304;-79
2021/01/18 10:30:27;;;;;;;11.18;5.60;;;5.50;99.90;;;;;;5080284;28;20784;-77
2021/01/18 10:33:01;;;;;;;12.32;6.65;;;5.40;99.90;;;;;;5094521;28;20258;-77
2021/01/18 10:35:35;;;;;;;12.50;6.63;;;5.60;99.90;;;;;;5093883;28;20283;-75
2021/01/18 10:38:18;;;;;;;18.80;7.05;;;5.50;99.90;;;;;;5090234;28;20616;-78
2021/01/18 10:41:00;;;;;;;11.40;5.72;;;5.60;99.90;;;;;;5092392;28;20212;-77
2021/01/18 10:43:34;;;;;;;19.48;7.70;;;5.50;99.90;;;;;;5090122;28;20209;-77
2021/01/18 10:46:15;;;;;;;20.88;7.90;;;5.60;99.90;;;;;;5094317;28;20197;-76
2021/01/18 10:48:55;;;;;;;11.68;6.20;;;5.60;99.90;;;;;;5092554;28;20775;-76
2021/01/18 10:51:29;;;;;;;9.05;5.03;;;5.60;99.90;;;;;;5096196;28;20686;-75
2021/01/18 10:54:02;;;;;;;8.23;4.53;;;5.60;99.90;;;;;;5095465;28;20198;-79
2021/01/18 10:56:35;;;;;;;13.15;5.13;;;5.70;99.90;;;;;;5094452;28;20189;-80
2021/01/18 10:59:13;;;;;;;9.57;4.47;;;5.70;99.90;;;;;;5090979;28;20213;-75
2021/01/18 11:01:59;;;;;;;19.02;5.85;;;5.70;99.90;;;;;;5091468;28;20748;-79
2021/01/18 11:04:35;;;;;;;22.13;9.45;;;5.70;99.90;;;;;;5092598;28;20198;-78
2021/01/18 11:07:10;;;;;;;12.38;5.38;;;5.70;99.90;;;;;;5091864;28;20197;-79
2021/01/18 11:09:43;;;;;;;10.77;4.40;;;5.70;99.90;;;;;;5092707;28;20220;-79
2021/01/18 11:12:15;;;;;;;11.98;4.93;;;5.70;99.90;;;;;;5075410;28;20646;-78
2021/01/18 11:14:57;;;;;;;16.70;5.25;;;5.70;99.90;;;;;;5075332;28;20673;-79
2021/01/18 11:17:30;;;;;;;7.07;3.85;;;5.60;99.90;;;;;;5076806;28;20197;-77
2021/01/18 11:20:05;;;;;;;12.48;4.70;;;5.60;99.90;;;;;;5094983;28;20226;-81
2021/01/18 11:22:38;;;;;;;10.35;4.13;;;5.60;99.90;;;;;;5089907;28;20212;-77
2021/01/18 11:25:11;;;;;;;11.27;5.28;;;5.60;99.90;;;;;;5092165;28;20208;-78
2021/01/18 11:27:43;;;;;;;12.18;4.93;;;5.60;99.90;;;;;;5093439;28;20218;-80
2021/01/18 11:30:12;;;;;;;6.03;3.40;;;5.70;99.90;;;;;;5092720;28;20194;-79
2021/01/18 11:32:45;;;;;;;7.65;3.92;;;5.60;99.90;;;;;;5093192;28;20739;-80
2021/01/18 11:35:17;;;;;;;15.32;4.00;;;5.60;99.90;;;;;;5095374;28;20229;-78
2021/01/18 11:37:50;;;;;;;9.30;4.10;;;5.60;99.90;;;;;;5095468;28;20200;-78
2021/01/18 11:40:22;;;;;;;12.60;4.32;;;5.60;99.90;;;;;;5095100;28;20288;-79
2021/01/18 11:42:57;;;;;;;7.75;3.28;;;5.60;99.90;;;;;;5093374;28;20541;-77
2021/01/18 11:45:30;;;;;;;12.60;3.40;;;5.60;99.90;;;;;;5089721;28;20197;-77
2021/01/18 11:48:04;;;;;;;11.93;5.32;;;5.60;99.90;;;;;;5091887;28;20215;-80
2021/01/18 11:50:37;;;;;;;6.22;4.05;;;5.70;99.90;;;;;;5091205;28;20312;-79
2021/01/18 11:53:15;;;;;;;6.22;2.95;;;5.60;99.90;;;;;;5092378;28;20217;-79
2021/01/18 11:55:48;;;;;;;14.13;3.83;;;5.70;99.90;;;;;;5093472;28;20201;-77
2021/01/18 11:58:21;;;;;;;13.07;5.95;;;5.70;99.90;;;;;;5093443;28;20189;-79
2021/01/18 12:00:54;;;;;;;8.27;3.70;;;5.70;99.90;;;;;;5094738;28;20295;-79
2021/01/18 12:03:26;;;;;;;7.13;3.28;;;5.70;99.90;;;;;;5094333;28;20233;-79
2021/01/18 12:06:01;;;;;;;8.52;3.42;;;5.70;99.90;;;;;;5091983;28;20301;-78
2021/01/18 12:08:34;;;;;;;9.07;4.03;;;5.70;99.90;;;;;;5090407;28;20209;-81
2021/01/18 12:11:06;;;;;;;10.65;3.90;;;5.70;99.90;;;;;;5089906;28;20201;-78
2021/01/18 12:13:39;;;;;;;6.00;2.85;;;5.80;99.90;;;;;;5072215;28;20641;-79
2021/01/18 12:16:12;;;;;;;10.20;3.75;;;5.70;99.90;;;;;;5080180;28;20300;-79
2021/01/18 12:18:45;;;;;;;10.90;4.05;;;5.70;99.90;;;;;;5092468;28;20208;-77
2021/01/18 12:21:17;;;;;;;10.45;4.20;;;5.80;99.90;;;;;;5091248;28;20665;-79
2021/01/18 12:23:50;;;;;;;9.20;3.35;;;5.80;99.90;;;;;;5089710;28;20296;-80
2021/01/18 12:26:23;;;;;;;13.18;4.47;;;5.80;99.90;;;;;;5091987;28;20237;-79
2021/01/18 12:28:55;;;;;;;11.27;3.58;;;6.00;99.90;;;;;;5091067;28;20221;-76
2021/01/18 12:31:34;;;;;;;10.93;3.60;;;5.90;99.90;;;;;;5091224;28;20200;-78
2021/01/18 12:34:06;;;;;;;12.90;3.83;;;5.90;99.90;;;;;;5091321;28;20209;-78
2021/01/18 12:36:33;;;;;;;8.75;3.65;;;6.00;99.90;;;;;;5079798;28;20466;-78
2021/01/18 12:38:59;;;;;;;10.13;3.40;;;6.10;99.90;;;;;;5076165;28;20257;-79
2021/01/18 12:41:26;;;;;;;14.40;5.30;;;6.10;99.90;;;;;;5088875;28;20667;-80
2021/01/18 12:43:54;;;;;;;13.52;4.72;;;6.10;99.90;;;;;;5087606;28;20194;-80
2021/01/18 12:46:20;;;;;;;11.95;4.68;;;6.10;99.90;;;;;;5086631;28;20209;-79
2021/01/18 12:48:49;;;;;;;16.65;5.25;;;6.10;99.90;;;;;;5087771;28;20229;-78
2021/01/18 12:51:18;;;;;;;12.23;4.22;;;6.10;99.90;;;;;;5088439;28;20844;-77
2021/01/18 12:53:45;;;;;;;6.90;3.38;;;6.10;99.90;;;;;;5088600;28;20308;-78
2021/01/18 12:56:12;;;;;;;9.75;4.10;;;6.10;99.90;;;;;;5082075;28;20248;-77
2021/01/18 12:58:39;;;;;;;10.23;3.90;;;6.10;99.90;;;;;;5084713;28;20702;-79
2021/01/18 13:01:05;;;;;;;7.30;3.53;;;6.10;99.90;;;;;;5085959;28;20195;-78
2021/01/18 13:03:32;;;;;;;17.35;5.70;;;6.10;99.90;;;;;;5084743;28;20569;-78
2021/01/18 13:06:00;;;;;;;16.20;6.00;;;6.10;99.90;;;;;;5088035;28;20204;-78
2021/01/18 13:08:26;;;;;;;17.42;5.50;;;6.10;99.90;;;;;;5085152;28;20267;-79
2021/01/18 13:11:00;;;;;;;10.93;4.25;;;6.10;99.90;;;;;;5086729;28;20632;-76
2021/01/18 13:13:27;;;;;;;9.27;4.25;;;6.20;99.90;;;;;;5087856;28;20208;-77
2021/01/18 13:16:01;;;;;;;13.40;4.30;;;6.20;99.90;;;;;;5078056;28;20198;-76
2021/01/18 13:18:27;;;;;;;15.20;4.63;;;6.20;99.90;;;;;;5087545;28;20193;-78
2021/01/18 13:20:54;;;;;;;17.10;4.40;;;6.20;99.90;;;;;;5089388;28;20231;-75
2021/01/18 13:23:22;;;;;;;7.80;4.97;;;6.20;99.90;;;;;;5089436;28;20309;-77